Archival Weather

Snohomish County (Paine Fld)

Everett, Washington (KPAE)

Report from: Saturday, November 11, 2023 2:53 AM PST
Current time: Monday, June 17, 2024 1:10 AM PDT

Current weather – Weather history – Daily summaries
Weather forecast

Present weatherLight rain
Temperature10.0°C (50.0°F)
Wind chill6.2°C (43.1°F)
Dew point6.1°C (43.0°F)
Winds 20 kts (10.3 m/s, 23 mph) South (170°)
Wind gusts 35 kts (18 m/s, 40.3 mph)
Peak wind 38 kts (19.5 m/s, 43.7 mph) South (180°) at 10:14
Visibility10 mi. (16.1 km)
Clouds Few clouds 2,300 ft. (701 m)
Ceiling: Overcast 3,400 ft. (1,036 m)
Altimeter29.72 in.Hg (1006 mB)
PrecipitiationTrace
Relative humidity77 %
Density altitude-235 ft. (-72 m)
Sea-level pressure100.7 kPa (1007 mB, 29.72 in.Hg)
Remarks Fully automated report
Automated weather observing station with precipitation discriminator
Pressure falling rapidly
Flight conditions Visual Meteorological Conditions
Raw dataKPAE 111053Z AUTO 17020G35KT 10SM -RA FEW023 OVC034 10/06 A2972 RMK AO2 PK WND 18038/1014 PRESFR SLP066 P0000 T01000061
An error has occurred. This application may no longer respond until reloaded. Reload 🗙